TimePDT,TemperatureF,Dew PointF,Humidity,Sea Level PressureIn,VisibilityMPH,Wind Direction,Wind SpeedMPH,Gust SpeedMPH,PrecipitationIn,Events,Conditions,WindDirDegrees,DateUTC
12:52 AM,66.0,50.0,56,29.94,10.0,North,6.9,-,N/A,,Clear,360,2013-09-12 07:52:00
1:52 AM,66.9,48.9,52,29.94,10.0,NNE,4.6,-,N/A,,Clear,20,2013-09-12 08:52:00
2:52 AM,64.0,50.0,60,29.94,10.0,North,5.8,-,N/A,,Clear,10,2013-09-12 09:52:00
3:52 AM,63.0,50.0,63,29.94,10.0,North,6.9,-,N/A,,Clear,10,2013-09-12 10:52:00
4:52 AM,61.0,52.0,72,29.94,10.0,North,5.8,-,N/A,,Clear,360,2013-09-12 11:52:00
5:52 AM,59.0,52.0,78,29.95,10.0,North,4.6,-,N/A,,Clear,360,2013-09-12 12:52:00
6:52 AM,60.1,52.0,75,29.96,10.0,NNE,3.5,-,N/A,,Clear,20,2013-09-12 13:52:00
7:52 AM,68.0,52.0,56,29.97,10.0,North,3.5,-,N/A,,Clear,10,2013-09-12 14:52:00
8:52 AM,75.9,53.1,45,29.97,10.0,NE,5.8,-,N/A,,Clear,40,2013-09-12 15:52:00
9:52 AM,82.9,53.1,36,29.96,10.0,NE,6.9,-,N/A,,Clear,50,2013-09-12 16:52:00
10:52 AM,88.0,48.9,26,29.94,10.0,North,4.6,-,N/A,,Clear,10,2013-09-12 17:52:00
11:52 AM,91.9,48.9,23,29.92,10.0,NE,5.8,-,N/A,,Clear,40,2013-09-12 18:52:00
12:52 PM,95.0,46.9,19,29.90,10.0,North,6.9,-,N/A,,Clear,10,2013-09-12 19:52:00
1:52 PM,95.0,46.0,19,29.88,10.0,Variable,3.5,-,N/A,,Clear,0,2013-09-12 20:52:00
2:52 PM,97.0,44.1,16,29.86,10.0,NW,5.8,-,N/A,,Clear,320,2013-09-12 21:52:00
3:52 PM,97.0,44.1,16,29.84,10.0,North,5.8,-,N/A,,Clear,10,2013-09-12 22:52:00
4:52 PM,98.1,44.1,16,29.82,10.0,ENE,4.6,-,N/A,,Clear,70,2013-09-12 23:52:00
5:52 PM,93.9,46.0,19,29.82,10.0,Calm,Calm,-,N/A,,Clear,0,2013-09-13 00:52:00
6:52 PM,89.1,54.0,30,29.81,10.0,SSW,8.1,-,N/A,,Clear,210,2013-09-13 01:52:00
7:52 PM,86.0,54.0,33,29.81,10.0,WSW,6.9,-,N/A,,Clear,240,2013-09-13 02:52:00
8:52 PM,82.0,53.1,37,29.81,10.0,West,8.1,-,N/A,,Clear,270,2013-09-13 03:52:00
9:52 PM,80.1,52.0,38,29.81,10.0,West,8.1,-,N/A,,Clear,270,2013-09-13 04:52:00
10:52 PM,71.1,55.0,57,29.81,10.0,NNE,3.5,-,N/A,,Clear,20,2013-09-13 05:52:00
11:52 PM,70.0,55.0,59,29.81,10.0,Calm,Calm,-,N/A,,Clear,0,2013-09-13 06:52:00